Time;durP1;ratioP1;P1;durP2;ratioP2;P2;SDS_P1;SDS_P2;PMS_P1;PMS_P2;Temp;Humidity;BMP_temperature;BMP_pressure;BME280_temperature;BME280_humidity;BME280_pressure;Samples;Min_cycle;Max_cycle;Signal;HPM_P1;HPM_P2
2022/12/14 00:01:21;;;;;;;;;28.00;24.00;;;;;-0.79;66.23;100593.41;5070204;28;11546;-67
2022/12/14 00:03:47;;;;;;;;;36.75;27.00;;;;;-0.78;66.42;100584.50;5070099;28;11544;-66
2022/12/14 00:06:16;;;;;;;;;29.50;23.25;;;;;-0.75;66.36;100576.34;5069380;28;11599;-66
2022/12/14 00:08:43;;;;;;;;;24.50;19.00;;;;;-0.78;66.25;100576.56;5067575;28;11563;-66
2022/12/14 00:11:10;;;;;;;;;27.25;20.50;;;;;-0.76;66.72;100577.31;5066527;28;11557;-66
2022/12/14 00:13:37;;;;;;;;;24.25;21.50;;;;;-0.74;66.07;100580.63;5063211;28;11691;-67
2022/12/14 00:16:12;;;;;;;;;18.25;15.50;;;;;-0.70;65.94;100575.94;5069720;28;11586;-66
2022/12/14 00:18:40;;;;;;;;;16.75;15.25;;;;;-0.69;66.40;100572.31;5063410;28;11647;-66
2022/12/14 00:21:09;;;;;;;;;21.50;19.00;;;;;-0.72;66.14;100567.31;5068974;28;11586;-65
2022/12/14 00:23:37;;;;;;;;;28.25;23.25;;;;;-0.71;66.37;100566.34;5070131;28;11693;-67
2022/12/14 00:26:20;;;;;;;;;31.00;23.00;;;;;-0.71;65.94;100559.25;5072329;28;12346;-67
2022/12/14 00:28:48;;;;;;;;;25.00;18.00;;;;;-0.70;66.10;100563.56;5073820;28;11547;-68
2022/12/14 00:31:15;;;;;;;;;23.50;21.50;;;;;-0.78;65.45;100558.06;5072612;28;11565;-67
2022/12/14 00:33:41;;;;;;;;;27.25;21.75;;;;;-0.89;65.18;100555.47;5073205;28;11578;-68
2022/12/14 00:36:10;;;;;;;;;27.50;23.00;;;;;-0.97;65.20;100552.66;5069048;28;12266;-68
2022/12/14 00:38:37;;;;;;;;;25.50;22.00;;;;;-1.01;65.59;100544.16;5062016;28;11628;-67
2022/12/14 00:41:04;;;;;;;;;24.25;21.50;;;;;-0.98;66.15;100546.53;5065502;28;13937;-66
2022/12/14 00:43:30;;;;;;;;;21.25;19.25;;;;;-0.95;65.71;100534.88;5061798;28;11548;-67
2022/12/14 00:45:57;;;;;;;;;23.75;22.50;;;;;-0.94;65.29;100532.09;5065802;28;11586;-66
2022/12/14 00:48:24;;;;;;;;;25.00;21.75;;;;;-0.93;65.13;100535.56;5060531;28;11600;-66
2022/12/14 00:50:53;;;;;;;;;26.75;24.50;;;;;-0.97;64.87;100532.38;5067972;28;11580;-67
2022/12/14 00:53:21;;;;;;;;;15.75;15.25;;;;;-0.94;65.66;100534.72;5073388;28;11566;-68
2022/12/14 00:55:48;;;;;;;;;19.50;18.00;;;;;-0.95;65.51;100529.59;5072976;28;11541;-68
2022/12/14 00:58:19;;;;;;;;;18.75;14.00;;;;;-0.92;65.26;100522.25;5069821;28;11549;-66
2022/12/14 01:00:47;;;;;;;;;19.00;15.25;;;;;-0.92;64.85;100529.34;5072802;28;11616;-67
2022/12/14 01:03:14;;;;;;;;;23.50;17.00;;;;;-0.93;65.04;100527.66;5062954;28;11676;-68
2022/12/14 01:05:40;;;;;;;;;30.50;19.00;;;;;-0.93;65.27;100512.66;5072543;28;11580;-67
2022/12/14 01:08:14;;;;;;;;;18.25;17.25;;;;;-0.96;64.73;100514.72;5073290;28;11691;-69
2022/12/14 01:10:41;;;;;;;;;17.75;16.00;;;;;-1.00;64.94;100504.41;5073111;28;11588;-65
2022/12/14 01:13:09;;;;;;;;;16.50;15.25;;;;;-0.99;64.46;100502.59;5071690;28;11569;-67
2022/12/14 01:15:36;;;;;;;;;12.25;12.00;;;;;-0.95;65.15;100506.66;5065050;28;11642;-67
2022/12/14 01:18:02;;;;;;;;;23.25;16.00;;;;;-0.93;64.40;100502.09;5060890;28;11626;-67
2022/12/14 01:20:29;;;;;;;;;16.50;15.25;;;;;-0.91;64.54;100509.88;5072557;28;12580;-68
2022/12/14 01:22:56;;;;;;;;;20.75;19.25;;;;;-0.91;64.51;100508.06;5071680;28;11564;-67
2022/12/14 01:25:22;;;;;;;;;15.75;12.50;;;;;-0.91;64.41;100502.78;5057473;28;12303;-67
2022/12/14 01:27:49;;;;;;;;;18.00;16.00;;;;;-0.89;64.03;100508.78;5070915;28;11574;-67
2022/12/14 01:30:18;;;;;;;;;17.75;15.25;;;;;-0.85;63.89;100518.13;5067646;28;11597;-66
2022/12/14 01:32:45;;;;;;;;;9.00;6.25;;;;;-0.83;64.33;100518.00;5071562;28;11585;-67
2022/12/14 01:35:11;;;;;;;;;14.50;12.75;;;;;-0.83;64.33;100518.00;5071280;28;11609;-67
2022/12/14 01:37:37;;;;;;;;;13.00;12.00;;;;;-0.85;64.74;100515.50;5067941;28;11562;-65
2022/12/14 01:40:04;;;;;;;;;13.00;12.00;;;;;-0.87;64.45;100509.47;5067685;28;11552;-66
2022/12/14 01:42:34;;;;;;;;;15.50;14.75;;;;;-0.89;64.89;100513.22;5068206;28;11535;-68
2022/12/14 01:45:00;;;;;;;;;11.00;9.50;;;;;-0.93;64.67;100496.81;5073202;28;11550;-67
2022/12/14 01:47:37;;;;;;;;;17.50;15.50;;;;;-0.96;63.80;100506.78;5071056;28;11561;-67
2022/12/14 01:50:12;;;;;;;;;17.00;15.00;;;;;-1.02;63.84;100503.66;5071856;28;11580;-68
2022/12/14 01:52:39;;;;;;;;;15.00;15.00;;;;;-1.00;64.54;100512.31;5051803;28;11585;-67
2022/12/14 01:55:12;;;;;;;;;13.50;13.50;;;;;-0.96;64.51;100510.25;5066467;28;11592;-68
2022/12/14 01:57:59;;;;;;;;;16.50;11.50;;;;;-0.92;64.38;100500.28;5066167;28;11554;-66
2022/12/14 02:00:25;;;;;;;;;15.00;14.00;;;;;-0.92;64.29;100502.91;5070495;28;11551;-67
2022/12/14 02:03:08;;;;;;;;;15.00;15.00;;;;;-0.93;63.83;100503.88;5071605;28;12263;-68
2022/12/14 02:05:40;;;;;;;;;14.75;14.00;;;;;-0.95;63.68;100501.38;5064971;28;11568;-66
2022/12/14 02:08:08;;;;;;;;;16.50;13.00;;;;;-0.96;64.17;100493.56;5066393;28;11669;-67
2022/12/14 02:10:35;;;;;;;;;19.75;15.25;;;;;-1.00;64.03;100490.34;5071572;28;11626;-67
2022/12/14 02:13:13;;;;;;;;;24.50;17.00;;;;;-1.01;64.57;100484.25;5068476;28;12321;-66
2022/12/14 02:15:41;;;;;;;;;12.50;10.00;;;;;-1.02;64.40;100479.06;5065557;28;11569;-68
2022/12/14 02:18:13;;;;;;;;;19.25;16.00;;;;;-1.03;64.65;100478.22;5071222;28;11556;-67
2022/12/14 02:20:48;;;;;;;;;12.75;11.00;;;;;-1.00;65.52;100475.34;5067166;28;11538;-67
2022/12/14 02:23:48;;;;;;;;;16.50;16.50;;;;;-0.98;64.79;100471.72;5071529;28;11576;-66
2022/12/14 02:26:43;;;;;;;;;13.00;12.50;;;;;-0.99;65.33;100473.53;5071313;28;11579;-68
2022/12/14 02:29:26;;;;;;;;;14.25;12.25;;;;;-1.00;65.01;100466.56;5064992;28;11554;-67
2022/12/14 02:32:14;;;;;;;;;17.50;14.00;;;;;-1.01;64.53;100464.91;5061729;28;11602;-68
2022/12/14 02:34:56;;;;;;;;;15.25;12.50;;;;;-1.02;64.48;100469.31;5068223;28;11629;-66
2022/12/14 02:37:58;;;;;;;;;14.75;13.75;;;;;-1.02;64.39;100465.84;5052584;28;11713;-69
2022/12/14 02:40:43;;;;;;;;;18.75;16.00;;;;;-1.05;64.54;100456.41;5070596;28;11575;-68
2022/12/14 02:43:40;;;;;;;;;15.75;14.00;;;;;-1.04;64.92;100446.66;5068995;28;11590;-69
2022/12/14 02:46:28;;;;;;;;;13.25;11.75;;;;;-1.03;64.77;100450.97;5059096;28;11603;-68
2022/12/14 02:49:04;;;;;;;;;15.00;15.00;;;;;-1.02;64.18;100447.38;5070780;28;11579;-70
2022/12/14 02:51:59;;;;;;;;;21.50;17.50;;;;;-1.02;64.60;100447.38;5070861;28;11596;-67
2022/12/14 02:54:59;;;;;;;;;23.50;17.00;;;;;-1.02;64.37;100440.28;5059767;28;11732;-68
2022/12/14 02:57:31;;;;;;;;;13.00;13.00;;;;;-1.02;64.74;100450.84;5062664;28;12322;-69
2022/12/14 03:00:01;;;;;;;;;15.50;13.00;;;;;-1.03;64.48;100440.41;5061317;28;11665;-68
2022/12/14 03:02:29;;;;;;;;;18.50;12.50;;;;;-1.03;64.79;100441.25;5070708;28;11530;-67
2022/12/14 03:04:57;;;;;;;;;15.75;13.50;;;;;-1.03;64.93;100438.59;5062937;28;12184;-67
2022/12/14 03:07:43;;;;;;;;;17.00;12.25;;;;;-1.04;64.65;100450.16;5052183;28;11710;-68
2022/12/14 03:10:37;;;;;;;;;14.25;12.00;;;;;-1.04;64.50;100442.22;5067584;28;11552;-67
2022/12/14 03:13:16;;;;;;;;;13.50;13.00;;;;;-1.05;64.87;100439.72;5062523;28;11554;-68
2022/12/14 03:15:47;;;;;;;;;10.50;10.00;;;;;-1.07;64.65;100431.91;5070185;28;11542;-67
2022/12/14 03:18:17;;;;;;;;;11.50;10.00;;;;;-1.09;64.94;100433.84;5049226;28;11561;-67
2022/12/14 03:20:49;;;;;;;;;17.25;15.00;;;;;-1.12;65.17;100428.00;5071203;28;11565;-67
2022/12/14 03:23:25;;;;;;;;;15.75;15.00;;;;;-1.12;65.37;100425.34;5066372;28;11582;-66
2022/12/14 03:26:04;;;;;;;;;14.50;12.75;;;;;-1.13;65.53;100421.03;5061303;28;11552;-69
2022/12/14 03:28:38;;;;;;;;;16.25;15.00;;;;;-1.14;65.67;100430.75;5067230;28;11587;-67
2022/12/14 03:31:11;;;;;;;;;14.50;14.50;;;;;-1.16;65.54;100422.13;5070305;28;11553;-67
2022/12/14 03:33:41;;;;;;;;;14.50;13.00;;;;;-1.17;65.99;100411.69;5070566;28;11576;-68
2022/12/14 03:36:15;;;;;;;;;19.50;16.50;;;;;-1.16;65.98;100410.72;5059456;28;11583;-69
2022/12/14 03:38:48;;;;;;;;;18.50;12.00;;;;;-1.17;65.90;100403.78;5061865;28;11690;-67
2022/12/14 03:41:20;;;;;;;;;16.00;15.00;;;;;-1.13;65.72;100415.75;5070829;28;11562;-69
2022/12/14 03:44:03;;;;;;;;;18.00;16.00;;;;;-1.14;65.36;100409.63;5070430;28;11639;-69
2022/12/14 03:46:51;;;;;;;;;15.50;13.00;;;;;-1.15;65.83;100402.66;5063175;28;12321;-66
2022/12/14 03:49:26;;;;;;;;;16.50;15.25;;;;;-1.15;65.61;100404.47;5064056;28;11594;-66
2022/12/14 03:52:14;;;;;;;;;18.00;18.00;;;;;-1.20;64.97;100404.88;5066869;28;11593;-68
2022/12/14 03:55:04;;;;;;;;;17.25;14.50;;;;;-1.22;64.49;100400.66;5063751;28;11586;-66
2022/12/14 03:57:53;;;;;;;;;15.25;15.00;;;;;-1.22;64.17;100396.22;5074021;28;11575;-67
2022/12/14 04:00:23;;;;;;;;;14.25;11.00;;;;;-1.21;64.35;100394.44;5075525;28;11661;-68
2022/12/14 04:03:04;;;;;;;;;15.25;15.00;;;;;-1.20;63.58;100393.47;5059762;28;12326;-67
2022/12/14 04:05:42;;;;;;;;;15.00;13.50;;;;;-1.21;63.51;100397.91;5074697;28;11563;-68
2022/12/14 04:08:17;;;;;;;;;14.50;11.50;;;;;-1.23;64.20;100397.19;5077070;28;11521;-67
2022/12/14 04:19:53;;;;;;;;;13.25;11.00;;;;;-1.27;64.20;100383.41;5073003;28;12310;-68
2022/12/14 04:22:24;;;;;;;;;17.00;12.25;;;;;-1.28;64.19;100375.63;5076232;28;11529;-69
2022/12/14 04:29:54;;;;;;;;;15.75;9.75;;;;;-1.31;64.64;100376.72;5071358;28;11626;-67
2022/12/14 04:31:03;;;;;;;;;13.50;11.00;;;;;-1.37;64.67;100385.16;5072478;28;11536;-66
2022/12/14 04:33:46;;;;;;;;;15.50;15.25;;;;;-1.39;64.51;100378.31;5075730;28;11562;-68
2022/12/14 04:36:20;;;;;;;;;10.75;8.00;;;;;-1.42;64.61;100374.13;5076677;28;11547;-68
2022/12/14 04:38:53;;;;;;;;;15.00;11.00;;;;;-1.43;64.68;100376.91;5068439;28;11530;-68
2022/12/14 04:41:25;;;;;;;;;13.00;12.75;;;;;-1.44;64.70;100370.78;5075347;28;11560;-68
2022/12/14 04:43:56;;;;;;;;;14.25;11.50;;;;;-1.45;64.86;100370.94;5063820;28;11578;-68
2022/12/14 04:46:29;;;;;;;;;13.00;13.00;;;;;-1.48;65.15;100368.53;5075087;28;11585;-68
2022/12/14 04:49:15;;;;;;;;;16.25;14.00;;;;;-1.49;64.92;100373.00;5071813;28;11549;-68
2022/12/14 04:51:54;;;;;;;;;13.75;11.75;;;;;-1.50;64.74;100372.16;5076762;28;11669;-67
2022/12/14 04:54:37;;;;;;;;;13.50;11.50;;;;;-1.53;65.01;100363.66;5072421;28;11629;-65
2022/12/14 04:57:10;;;;;;;;;18.75;12.50;;;;;-1.57;65.29;100365.72;5073178;28;11632;-67
2022/12/14 04:59:44;;;;;;;;;15.00;12.75;;;;;-1.57;65.16;100360.44;5066491;28;11551;-67
2022/12/14 05:02:37;;;;;;;;;13.50;12.00;;;;;-1.59;65.48;100365.00;5076397;28;11693;-67
2022/12/14 05:05:28;;;;;;;;;14.25;12.50;;;;;-1.59;65.00;100364.16;5076390;28;12289;-70
2022/12/14 05:08:24;;;;;;;;;12.00;10.00;;;;;-1.60;64.94;100358.03;5048862;28;11712;-71
2022/12/14 05:11:08;;;;;;;;;11.50;9.00;;;;;-1.61;65.16;100352.91;5067730;28;11666;-69
2022/12/14 05:13:54;;;;;;;;;13.00;12.00;;;;;-1.64;64.71;100358.44;5072463;28;11508;-68
2022/12/14 05:16:23;;;;;;;;;15.50;13.50;;;;;-1.67;65.26;100359.50;5070815;28;11676;-68
2022/12/14 05:18:49;;;;;;;;;13.25;12.50;;;;;-1.70;65.31;100353.66;5070173;28;11715;-65
2022/12/14 05:24:20;;;;;;;;;16.00;15.00;;;;;-1.72;65.16;100355.59;4997801;28;11594;-67
2022/12/14 05:26:47;;;;;;;;;12.50;12.00;;;;;-1.76;65.18;100365.56;5001476;28;11636;-68
2022/12/14 05:29:13;;;;;;;;;13.00;12.00;;;;;-1.77;65.53;100348.06;5009689;28;11736;-68
2022/12/14 05:31:40;;;;;;;;;17.25;12.00;;;;;-1.75;66.01;100348.75;5070299;28;11716;-67
2022/12/14 05:34:06;;;;;;;;;9.50;9.50;;;;;-1.76;66.05;100345.28;5066621;28;11552;-67
2022/12/14 05:36:34;;;;;;;;;13.00;12.00;;;;;-1.77;65.69;100348.06;5073099;28;11543;-68
2022/12/14 05:39:00;;;;;;;;;17.50;12.75;;;;;-1.77;65.86;100343.63;5073555;28;12274;-68
2022/12/14 05:41:27;;;;;;;;;18.00;13.00;;;;;-1.79;65.79;100336.78;5051587;28;11657;-69
2022/12/14 05:43:53;;;;;;;;;19.25;16.00;;;;;-1.80;65.81;100335.94;5073158;28;11581;-68
2022/12/14 05:46:20;;;;;;;;;13.50;11.00;;;;;-1.82;66.09;100339.69;5063250;28;12357;-68
2022/12/14 05:48:46;;;;;;;;;20.50;17.25;;;;;-1.85;65.49;100343.41;5072884;28;11586;-69
2022/12/14 05:51:15;;;;;;;;;14.50;14.50;;;;;-1.88;66.07;100342.81;5072748;28;11550;-68
2022/12/14 05:53:41;;;;;;;;;15.25;14.00;;;;;-1.92;65.76;100339.59;5072388;28;11586;-67
2022/12/14 05:56:09;;;;;;;;;16.50;14.75;;;;;-1.95;65.76;100336.38;5065605;28;11572;-68
2022/12/14 05:58:35;;;;;;;;;17.50;12.25;;;;;-1.98;66.18;100329.56;5062604;28;11568;-69
2022/12/14 06:01:04;;;;;;;;;16.75;13.25;;;;;-2.00;66.13;100327.03;5067640;28;12345;-69
2022/12/14 06:03:31;;;;;;;;;15.75;15.75;;;;;-2.00;66.45;100321.75;5043455;28;11592;-70
2022/12/14 06:06:07;;;;;;;;;13.50;13.25;;;;;-2.00;66.20;100326.22;5042993;28;11550;-67
2022/12/14 06:08:37;;;;;;;;;17.75;14.75;;;;;-2.03;65.95;100321.19;5062320;28;11551;-67
2022/12/14 06:11:09;;;;;;;;;18.00;14.50;;;;;-2.05;66.57;100317.84;5071209;28;11619;-68
2022/12/14 06:13:36;;;;;;;;;17.00;15.75;;;;;-2.07;66.66;100317.94;5065107;28;11677;-68
2022/12/14 06:16:18;;;;;;;;;21.50;15.75;;;;;-2.08;66.73;100312.81;5072580;28;11659;-67
2022/12/14 06:18:50;;;;;;;;;20.00;15.00;;;;;-2.10;67.03;100322.66;5071206;28;11566;-67
2022/12/14 06:21:18;;;;;;;;;15.50;12.25;;;;;-2.14;66.89;100318.59;5072601;28;11585;-69
2022/12/14 06:23:45;;;;;;;;;13.75;12.75;;;;;-2.15;66.99;100323.03;5067808;28;11598;-69
2022/12/14 06:26:13;;;;;;;;;17.25;14.00;;;;;-2.13;66.83;100321.09;5069612;28;11674;-67
2022/12/14 06:28:39;;;;;;;;;21.00;16.50;;;;;-2.20;67.26;100309.38;5072427;28;11674;-69
2022/12/14 06:31:10;;;;;;;;;13.50;10.50;;;;;-2.13;67.21;100322.91;5071880;28;11649;-67
2022/12/14 06:33:37;;;;;;;;;18.75;15.75;;;;;-2.12;67.05;100321.94;5071009;28;11552;-68
2022/12/14 06:36:03;;;;;;;;;20.25;16.75;;;;;-2.16;67.19;100328.44;5068210;28;12390;-66
2022/12/14 06:38:30;;;;;;;;;18.25;16.50;;;;;-2.17;66.81;100329.41;5068555;28;11683;-67
2022/12/14 06:40:56;;;;;;;;;17.50;17.50;;;;;-2.22;66.79;100329.78;5071999;28;11605;-68
2022/12/14 06:43:24;;;;;;;;;19.75;18.25;;;;;-2.25;66.68;100325.56;5070239;28;11584;-67
2022/12/14 06:45:51;;;;;;;;;17.25;15.75;;;;;-2.25;67.00;100332.66;5069422;28;11667;-68
2022/12/14 06:48:18;;;;;;;;;23.00;17.25;;;;;-2.25;67.42;100337.94;5070789;28;11660;-68
2022/12/14 06:50:44;;;;;;;;;22.00;19.00;;;;;-2.24;67.07;100340.44;5069410;28;11610;-67
2022/12/14 06:53:13;;;;;;;;;32.00;21.67;;;;;-2.22;67.32;100337.69;5070691;28;11565;-69
2022/12/14 06:55:40;;;;;;;;;37.33;34.00;;;;;-2.25;66.80;100332.66;5071926;28;12355;-67
2022/12/14 06:58:11;;;;;;;;;46.67;38.33;;;;;-2.26;66.85;100338.91;5071423;28;8836;-67
2022/12/14 07:00:38;;;;;;;;;16.00;10.00;;;;;-2.27;66.90;100331.94;5069738;28;8824;-67
2022/12/14 07:03:04;;;;;;;;;37.00;33.00;;;;;-2.29;66.85;100328.59;5070695;28;8872;-69
2022/12/14 07:05:31;;;;;;;;;35.33;32.33;;;;;-2.29;66.95;100333.88;5069603;28;8832;-66
2022/12/14 07:07:57;;;;;;;;;30.00;26.33;;;;;-2.31;67.00;100328.72;5063924;28;8882;-67
2022/12/14 07:10:24;;;;;;;;;34.67;33.00;;;;;-2.32;67.08;100336.75;5067648;28;11599;-68
2022/12/14 07:12:50;;;;;;;;;38.67;35.00;;;;;-2.34;67.29;100325.50;5071586;28;11594;-68
2022/12/14 07:15:17;;;;;;;;;28.67;22.00;;;;;-2.34;67.35;100331.59;5073977;28;8844;-68
2022/12/14 07:17:43;;;;;;;;;28.67;21.00;;;;;-2.32;67.34;100337.56;5070091;28;12294;-67
2022/12/14 07:20:10;;;;;;;;;21.67;17.33;;;;;-2.26;67.20;100339.72;5070040;28;11673;-67
2022/12/14 07:22:37;;;;;;;;;19.50;18.25;;;;;-2.22;67.50;100336.84;5070231;28;11720;-69
2022/12/14 07:25:04;;;;;;;;;18.50;17.50;;;;;-2.19;67.62;100334.78;5070179;28;11572;-68
2022/12/14 07:27:31;;;;;;;;;18.75;16.50;;;;;-2.12;67.68;100333.31;5070308;28;11585;-67
2022/12/14 07:29:57;;;;;;;;;19.25;18.00;;;;;-2.09;67.16;100334.88;5070155;28;11581;-68
2022/12/14 07:32:23;;;;;;;;;17.50;15.50;;;;;-2.08;67.03;100333.91;5069203;28;11571;-66
2022/12/14 07:34:50;;;;;;;;;18.50;18.50;;;;;-2.09;67.72;100333.06;5064081;28;12279;-67
2022/12/14 07:37:16;;;;;;;;;20.00;15.00;;;;;-2.08;67.12;100336.56;5069817;28;11596;-67
2022/12/14 07:39:43;;;;;;;;;20.50;19.00;;;;;-2.08;67.80;100334.75;5070186;28;11653;-67
2022/12/14 07:42:09;;;;;;;;;21.00;16.50;;;;;-2.10;67.77;100341.13;5069970;28;11672;-67
2022/12/14 07:44:35;;;;;;;;;24.50;23.00;;;;;-2.14;67.61;100337.91;5069877;28;11560;-67
2022/12/14 07:47:02;;;;;;;;;21.50;18.75;;;;;-2.15;67.85;100343.28;5069956;28;11691;-67
2022/12/14 07:49:29;;;;;;;;;26.50;23.50;;;;;-2.18;67.43;100338.28;5069596;28;12279;-69
2022/12/14 07:51:55;;;;;;;;;20.00;18.25;;;;;-1.93;70.59;100337.94;5070302;28;11602;-68
2022/12/14 07:54:22;;;;;;;;;18.50;17.50;;;;;-1.87;69.53;100347.13;5085666;28;11570;-68
2022/12/14 07:56:49;;;;;;;;;20.50;18.25;;;;;-1.91;68.68;100340.44;5069961;28;12402;-68
2022/12/14 07:59:16;;;;;;;;;19.00;16.50;;;;;-1.94;68.43;100343.34;5069690;28;11547;-68
2022/12/14 08:01:43;;;;;;;;;9.50;9.25;;;;;-2.01;68.44;100343.00;5069408;28;12288;-66
2022/12/14 08:04:13;;;;;;;;;27.00;21.00;;;;;-1.73;70.46;100341.56;5069892;28;11656;-68
2022/12/14 08:06:40;;;;;;;;;26.00;23.25;;;;;-1.81;69.35;100344.00;5069751;28;11554;-68
2022/12/14 08:09:09;;;;;;;;;25.50;24.25;;;;;-1.95;68.31;100336.38;5069268;28;11564;-68
2022/12/14 08:11:36;;;;;;;;;28.50;21.00;;;;;-2.04;68.69;100336.16;5068670;28;11639;-66
2022/12/14 08:14:06;;;;;;;;;20.75;20.75;;;;;-2.10;68.14;100335.84;5068634;28;11576;-68
2022/12/14 08:16:33;;;;;;;;;27.25;22.00;;;;;-2.17;68.78;100329.41;5069470;28;11670;-67
2022/12/14 08:19:00;;;;;;;;;23.50;21.50;;;;;-2.20;68.44;100334.91;5069762;28;11589;-68
2022/12/14 08:21:27;;;;;;;;;30.25;27.00;;;;;-2.22;68.77;100348.22;5069216;28;11570;-67
2022/12/14 08:23:55;;;;;;;;;28.50;22.50;;;;;-2.26;68.66;100344.16;5068888;28;12289;-67
2022/12/14 08:26:24;;;;;;;;;24.00;24.00;;;;;-2.28;68.26;100349.53;5068943;28;12354;-68
2022/12/14 08:28:58;;;;;;;;;32.25;25.75;;;;;-2.30;68.61;100358.56;5068884;28;11568;-68
2022/12/14 08:31:26;;;;;;;;;29.00;22.50;;;;;-2.32;68.59;100355.19;5069119;28;11688;-68
2022/12/14 08:33:54;;;;;;;;;26.33;24.00;;;;;-2.31;68.77;100355.09;5068935;28;11639;-66
2022/12/14 08:36:28;;;;;;;;;29.50;22.00;;;;;-2.31;68.54;100359.50;5069698;28;11706;-68
2022/12/14 08:39:07;;;;;;;;;26.00;24.50;;;;;-2.29;68.84;100353.16;5069406;28;12360;-68
2022/12/14 08:41:34;;;;;;;;;23.00;19.50;;;;;-2.24;68.52;100358.03;5069115;28;11851;-69
2022/12/14 08:44:02;;;;;;;;;16.50;16.50;;;;;-2.18;68.65;100364.66;5071580;28;11569;-67
2022/12/14 08:46:33;;;;;;;;;22.00;19.50;;;;;-2.11;68.86;100357.88;5073398;28;11615;-68
2022/12/14 08:49:00;;;;;;;;;24.00;22.00;;;;;-2.07;68.59;100354.03;5072975;28;11564;-67
2022/12/14 08:51:27;;;;;;;;;21.00;18.25;;;;;-2.02;68.44;100368.53;5072980;28;11748;-68
2022/12/14 08:53:54;;;;;;;;;24.00;19.00;;;;;-1.95;69.25;100365.38;5072964;28;11568;-67
2022/12/14 08:56:24;;;;;;;;;18.50;17.50;;;;;-1.86;68.47;100375.22;5072654;28;11578;-69
2022/12/14 08:58:51;;;;;;;;;21.00;19.00;;;;;-1.82;68.33;100368.72;5073114;28;11591;-67
2022/12/14 09:01:20;;;;;;;;;21.50;18.25;;;;;-1.76;69.05;100368.19;5072665;28;12696;-68
2022/12/14 09:03:53;;;;;;;;;21.75;20.75;;;;;-1.72;68.36;100372.25;5071760;28;11551;-69
2022/12/14 09:06:27;;;;;;;;;22.75;20.50;;;;;-1.68;68.20;100376.31;5073062;28;11553;-69
2022/12/14 09:08:54;;;;;;;;;16.00;16.00;;;;;-1.63;68.63;100374.13;5072977;28;11582;-68
2022/12/14 09:11:21;;;;;;;;;20.75;18.50;;;;;-1.59;68.50;100378.19;5072679;28;12259;-68
2022/12/14 09:13:51;;;;;;;;;20.25;17.00;;;;;-1.53;68.60;100376.84;5072738;28;11565;-67
2022/12/14 09:16:19;;;;;;;;;22.50;15.00;;;;;-1.44;68.53;100381.34;5053662;28;11702;-69
2022/12/14 09:18:48;;;;;;;;;24.00;21.00;;;;;-1.37;68.35;100379.88;5052743;28;11582;-68
2022/12/14 09:21:15;;;;;;;;;25.00;23.25;;;;;-1.30;68.68;100374.91;5068469;28;11709;-68
2022/12/14 09:23:41;;;;;;;;;21.50;18.00;;;;;-1.23;68.91;100378.72;5072755;28;12361;-69
2022/12/14 09:26:15;;;;;;;;;19.00;15.75;;;;;-1.14;68.48;100387.66;5071752;28;11649;-69
2022/12/14 09:28:46;;;;;;;;;25.25;23.00;;;;;-1.06;68.31;100387.84;5072601;28;12298;-69
2022/12/14 09:31:14;;;;;;;;;21.00;21.00;;;;;-1.02;68.67;100390.06;5072516;28;11568;-69
2022/12/14 09:33:40;;;;;;;;;24.25;23.50;;;;;-0.95;68.57;100376.38;5072055;28;11590;-69
2022/12/14 09:36:12;;;;;;;;;27.00;21.00;;;;;-0.91;68.30;100377.78;5072013;28;11550;-68
2022/12/14 09:38:40;;;;;;;;;21.00;21.00;;;;;-0.84;67.97;100385.03;5072518;28;11570;-68
2022/12/14 09:41:47;;;;;;;;;25.00;18.25;;;;;-0.74;68.14;100379.78;5071244;28;11555;-69
2022/12/14 09:44:25;;;;;;;;;27.25;24.75;;;;;-0.62;69.63;100377.88;5072069;28;11637;-69
2022/12/14 09:47:05;;;;;;;;;28.75;24.00;;;;;-0.52;69.01;100371.69;5072989;28;11565;-69
2022/12/14 09:49:53;;;;;;;;;23.75;23.25;;;;;-0.47;68.29;100371.28;5072158;28;11574;-70
2022/12/14 09:52:28;;;;;;;;;24.75;21.25;;;;;-0.43;68.09;100369.19;5072155;28;11576;-70
2022/12/14 09:54:56;;;;;;;;;24.50;22.25;;;;;-0.38;68.75;100366.97;5071123;28;11551;-70
2022/12/14 09:57:29;;;;;;;;;25.50;24.50;;;;;-0.33;67.99;100370.88;5072082;28;11561;-69
2022/12/14 09:59:56;;;;;;;;;27.50;26.00;;;;;-0.31;67.94;100365.47;5071875;28;11586;-71
2022/12/14 10:03:21;;;;;;;;;28.00;22.50;;;;;-0.28;68.09;100366.03;5071684;28;11578;-68
2022/12/14 10:05:57;;;;;;;;;30.75;26.50;;;;;-0.23;67.54;100372.72;4944422;28;11761;-68
2022/12/14 10:08:30;;;;;;;;;25.75;20.50;;;;;-0.18;67.25;100366.03;5071355;28;11615;-68
2022/12/14 10:11:15;;;;;;;;;24.75;20.25;;;;;-0.17;67.32;100358.94;5068519;28;11576;-68
2022/12/14 10:14:18;;;;;;;;;20.75;17.75;;;;;-0.14;67.10;100361.31;5072110;28;11540;-68
2022/12/14 10:17:05;;;;;;;;;25.50;14.50;;;;;-0.12;67.12;100362.88;5071568;28;11570;-69
2022/12/14 10:19:56;;;;;;;;;22.25;21.25;;;;;-0.07;66.73;100362.44;5070932;28;12317;-69
2022/12/14 10:22:31;;;;;;;;;21.00;19.00;;;;;-0.02;66.99;100358.41;5070774;28;11714;-68
2022/12/14 10:25:17;;;;;;;;;13.50;13.00;;;;;0.04;66.54;100353.53;5071086;28;11600;-68
2022/12/14 10:27:50;;;;;;;;;22.00;17.00;;;;;0.03;66.27;100358.00;5071526;28;11599;-68
2022/12/14 10:30:36;;;;;;;;;24.25;19.25;;;;;0.03;65.97;100351.88;5071206;28;11596;-68
2022/12/14 10:33:28;;;;;;;;;21.50;21.50;;;;;0.07;66.00;100348.78;5070650;28;11583;-68
2022/12/14 10:36:18;;;;;;;;;24.50;20.50;;;;;0.08;65.66;100344.34;5070896;28;11622;-68
2022/12/14 10:38:55;;;;;;;;;20.75;20.50;;;;;0.04;65.68;100346.44;5071139;28;11653;-68
2022/12/14 10:41:40;;;;;;;;;27.75;22.50;;;;;0.07;65.75;100345.31;5070976;28;11650;-67
2022/12/14 10:44:23;;;;;;;;;21.25;18.00;;;;;0.01;65.57;100349.38;5070281;28;12289;-67
2022/12/14 10:46:55;;;;;;;;;14.25;13.50;;;;;0.00;65.70;100350.34;5070602;28;12247;-68
2022/12/14 10:49:58;;;;;;;;;21.75;15.25;;;;;0.07;65.55;100354.09;5070744;28;11646;-68
2022/12/14 10:52:32;;;;;;;;;18.00;13.00;;;;;0.10;65.05;100348.53;4983597;28;11764;-67
2022/12/14 10:55:03;;;;;;;;;16.50;12.50;;;;;0.08;64.52;100342.56;5055706;28;11581;-68
2022/12/14 10:57:29;;;;;;;;;13.00;12.50;;;;;0.09;64.26;100340.75;5070749;28;11674;-68
2022/12/14 10:59:56;;;;;;;;;16.25;15.75;;;;;0.07;63.99;100337.38;5070452;28;11692;-67
2022/12/14 11:02:42;;;;;;;;;18.75;18.50;;;;;0.02;63.74;100336.97;5070783;28;11586;-70
2022/12/14 11:05:23;;;;;;;;;15.25;12.75;;;;;-0.02;64.20;100339.06;5069498;28;11638;-68
2022/12/14 11:07:50;;;;;;;;;22.00;18.00;;;;;-0.01;64.36;100346.00;5069682;28;11564;-68
2022/12/14 11:10:28;;;;;;;;;13.00;12.00;;;;;0.05;64.81;100342.00;5070447;28;11675;-68
2022/12/14 11:13:04;;;;;;;;;22.25;17.50;;;;;0.06;64.07;100346.31;5052965;28;11578;-68
2022/12/14 11:15:40;;;;;;;;;16.00;15.25;;;;;0.05;63.82;100348.13;5070224;28;11579;-68
2022/12/14 11:18:16;;;;;;;;;17.25;14.00;;;;;0.09;63.55;100348.69;5070339;28;12250;-68
2022/12/14 11:20:55;;;;;;;;;9.50;8.75;;;;;0.12;63.83;100356.31;5070131;28;11588;-67
2022/12/14 11:23:34;;;;;;;;;29.50;25.00;;;;;0.12;63.14;100356.31;5070098;28;11682;-68
2022/12/14 11:26:30;;;;;;;;;16.00;15.00;;;;;0.11;63.14;100349.34;5069905;28;12312;-68
2022/12/14 11:28:59;;;;;;;;;28.00;27.00;;;;;0.08;63.52;100346.97;5061796;28;11621;-69
2022/12/14 11:31:33;;;;;;;;;22.25;20.00;;;;;0.08;63.78;100347.84;5069570;28;12360;-68
2022/12/14 11:34:02;;;;;;;;;26.50;21.00;;;;;0.15;64.44;100345.47;5070113;28;11570;-67
2022/12/14 11:36:35;;;;;;;;;19.25;18.25;;;;;0.25;63.95;100346.31;5069843;28;11688;-68
2022/12/14 11:39:22;;;;;;;;;20.00;15.75;;;;;0.35;63.28;100341.00;5070974;28;11567;-68
2022/12/14 11:41:59;;;;;;;;;14.75;14.75;;;;;0.41;63.36;100329.84;5056418;28;11567;-69
2022/12/14 11:44:29;;;;;;;;;20.25;18.00;;;;;0.46;63.27;100341.69;5053546;28;11577;-67
2022/12/14 11:46:56;;;;;;;;;19.25;15.50;;;;;0.48;63.06;100333.59;5070777;28;11539;-68
2022/12/14 11:49:24;;;;;;;;;16.25;14.25;;;;;0.53;63.38;100331.38;5070382;28;11683;-68
2022/12/14 11:52:08;;;;;;;;;17.50;15.25;;;;;0.59;62.97;100332.59;5070384;28;11671;-68
2022/12/14 11:54:44;;;;;;;;;28.25;22.75;;;;;0.57;62.50;100334.53;5069973;28;11589;-68